sensor_id;sensor_type;location;lat;lon;timestamp;temperature;humidity
66576;SHT31;53428;47.686;16.584;2023-06-10T00:01:29;13.97;99.99
66576;SHT31;53428;47.686;16.584;2023-06-10T00:06:29;13.83;99.99
66576;SHT31;53428;47.686;16.584;2023-06-10T00:11:35;13.79;99.99
66576;SHT31;53428;47.686;16.584;2023-06-10T00:16:35;13.88;99.99
66576;SHT31;53428;47.686;16.584;2023-06-10T00:21:35;13.93;99.99
66576;SHT31;53428;47.686;16.584;2023-06-10T00:26:39;13.93;99.99
66576;SHT31;53428;47.686;16.584;2023-06-10T00:31:39;13.87;99.99
66576;SHT31;53428;47.686;16.584;2023-06-10T00:36:39;13.87;99.99
66576;SHT31;53428;47.686;16.584;2023-06-10T00:41:38;13.79;99.99
66576;SHT31;53428;47.686;16.584;2023-06-10T00:46:38;13.65;99.99
66576;SHT31;53428;47.686;16.584;2023-06-10T00:51:38;13.66;99.99
66576;SHT31;53428;47.686;16.584;2023-06-10T00:56:38;13.63;99.99
66576;SHT31;53428;47.686;16.584;2023-06-10T01:01:38;13.60;99.99
66576;SHT31;53428;47.686;16.584;2023-06-10T01:06:47;13.50;99.99
66576;SHT31;53428;47.686;16.584;2023-06-10T01:12:04;13.60;99.99
66576;SHT31;53428;47.686;16.584;2023-06-10T01:17:08;13.66;99.99
66576;SHT31;53428;47.686;16.584;2023-06-10T01:22:08;13.62;99.99
66576;SHT31;53428;47.686;16.584;2023-06-10T01:27:14;13.66;99.99
66576;SHT31;53428;47.686;16.584;2023-06-10T01:32:23;13.59;99.99
66576;SHT31;53428;47.686;16.584;2023-06-10T01:37:26;13.50;99.99
66576;SHT31;53428;47.686;16.584;2023-06-10T01:42:26;13.43;99.99
66576;SHT31;53428;47.686;16.584;2023-06-10T01:47:26;13.52;99.99
66576;SHT31;53428;47.686;16.584;2023-06-10T01:52:26;13.55;99.99
66576;SHT31;53428;47.686;16.584;2023-06-10T01:57:25;13.65;99.99
66576;SHT31;53428;47.686;16.584;2023-06-10T02:02:25;13.77;99.99
66576;SHT31;53428;47.686;16.584;2023-06-10T02:07:24;13.90;99.99
66576;SHT31;53428;47.686;16.584;2023-06-10T02:12:23;13.98;99.99
66576;SHT31;53428;47.686;16.584;2023-06-10T02:17:23;13.96;99.99
66576;SHT31;53428;47.686;16.584;2023-06-10T02:22:23;14.01;99.99
66576;SHT31;53428;47.686;16.584;2023-06-10T02:27:22;14.10;99.99
66576;SHT31;53428;47.686;16.584;2023-06-10T02:32:22;14.14;99.99
66576;SHT31;53428;47.686;16.584;2023-06-10T02:37:22;14.21;99.99
66576;SHT31;53428;47.686;16.584;2023-06-10T02:42:21;14.32;99.99
66576;SHT31;53428;47.686;16.584;2023-06-10T02:47:20;14.36;99.99
66576;SHT31;53428;47.686;16.584;2023-06-10T02:52:20;14.45;99.99
66576;SHT31;53428;47.686;16.584;2023-06-10T02:57:19;14.55;99.99
66576;SHT31;53428;47.686;16.584;2023-06-10T03:02:18;14.61;99.99
66576;SHT31;53428;47.686;16.584;2023-06-10T03:07:18;14.68;99.99
66576;SHT31;53428;47.686;16.584;2023-06-10T03:12:17;14.82;99.99
66576;SHT31;53428;47.686;16.584;2023-06-10T03:17:17;14.93;99.99
66576;SHT31;53428;47.686;16.584;2023-06-10T03:22:16;14.97;99.99
66576;SHT31;53428;47.686;16.584;2023-06-10T03:27:16;15.03;99.99
66576;SHT31;53428;47.686;16.584;2023-06-10T03:32:15;15.08;99.99
66576;SHT31;53428;47.686;16.584;2023-06-10T03:37:15;15.08;99.99
66576;SHT31;53428;47.686;16.584;2023-06-10T03:42:14;15.30;99.99
66576;SHT31;53428;47.686;16.584;2023-06-10T03:47:14;15.35;99.99
66576;SHT31;53428;47.686;16.584;2023-06-10T03:52:13;15.31;99.99
66576;SHT31;53428;47.686;16.584;2023-06-10T03:57:13;15.28;99.99
66576;SHT31;53428;47.686;16.584;2023-06-10T04:02:12;15.28;99.99
66576;SHT31;53428;47.686;16.584;2023-06-10T04:07:11;15.30;99.99
66576;SHT31;53428;47.686;16.584;2023-06-10T04:12:11;15.50;99.99
66576;SHT31;53428;47.686;16.584;2023-06-10T04:17:10;15.51;99.99
66576;SHT31;53428;47.686;16.584;2023-06-10T04:22:10;15.58;99.99
66576;SHT31;53428;47.686;16.584;2023-06-10T04:27:09;15.79;99.99
66576;SHT31;53428;47.686;16.584;2023-06-10T04:32:09;15.69;99.99
66576;SHT31;53428;47.686;16.584;2023-06-10T04:37:08;15.85;99.99
66576;SHT31;53428;47.686;16.584;2023-06-10T04:42:08;15.85;99.99
66576;SHT31;53428;47.686;16.584;2023-06-10T04:47:07;15.93;99.99
66576;SHT31;53428;47.686;16.584;2023-06-10T04:52:07;16.09;99.99
66576;SHT31;53428;47.686;16.584;2023-06-10T04:57:06;16.05;99.99
66576;SHT31;53428;47.686;16.584;2023-06-10T05:02:06;16.18;99.98
66576;SHT31;53428;47.686;16.584;2023-06-10T05:07:06;16.21;99.83
66576;SHT31;53428;47.686;16.584;2023-06-10T05:12:06;16.38;99.98
66576;SHT31;53428;47.686;16.584;2023-06-10T05:17:06;16.50;99.75
66576;SHT31;53428;47.686;16.584;2023-06-10T05:22:05;16.74;98.81
66576;SHT31;53428;47.686;16.584;2023-06-10T05:27:05;16.85;98.69
66576;SHT31;53428;47.686;16.584;2023-06-10T05:32:05;16.92;98.21
66576;SHT31;53428;47.686;16.584;2023-06-10T05:37:05;17.16;98.22
66576;SHT31;53428;47.686;16.584;2023-06-10T05:42:06;17.03;99.37
66576;SHT31;53428;47.686;16.584;2023-06-10T05:47:05;16.92;99.99
66576;SHT31;53428;47.686;16.584;2023-06-10T05:52:05;17.09;99.99
66576;SHT31;53428;47.686;16.584;2023-06-10T05:57:05;17.51;98.49
66576;SHT31;53428;47.686;16.584;2023-06-10T06:02:05;17.67;96.95
66576;SHT31;53428;47.686;16.584;2023-06-10T06:07:05;17.67;96.48
66576;SHT31;53428;47.686;16.584;2023-06-10T06:12:05;17.51;97.69
66576;SHT31;53428;47.686;16.584;2023-06-10T06:17:06;17.51;98.05
66576;SHT31;53428;47.686;16.584;2023-06-10T06:22:06;17.67;96.91
66576;SHT31;53428;47.686;16.584;2023-06-10T06:27:05;17.99;96.54
66576;SHT31;53428;47.686;16.584;2023-06-10T06:32:05;18.35;95.66
66576;SHT31;53428;47.686;16.584;2023-06-10T06:37:05;18.67;93.67
66576;SHT31;53428;47.686;16.584;2023-06-10T06:42:05;18.53;94.34
66576;SHT31;53428;47.686;16.584;2023-06-10T06:47:05;18.94;92.89
66576;SHT31;53428;47.686;16.584;2023-06-10T06:52:04;18.94;92.76
66576;SHT31;53428;47.686;16.584;2023-06-10T06:57:04;18.76;92.97
66576;SHT31;53428;47.686;16.584;2023-06-10T07:02:05;18.59;94.12
66576;SHT31;53428;47.686;16.584;2023-06-10T07:07:07;18.39;95.08
66576;SHT31;53428;47.686;16.584;2023-06-10T07:12:08;18.60;94.25
66576;SHT31;53428;47.686;16.584;2023-06-10T07:17:08;18.81;93.15
66576;SHT31;53428;47.686;16.584;2023-06-10T07:22:07;18.66;92.85
66576;SHT31;53428;47.686;16.584;2023-06-10T07:27:08;19.33;91.03
66576;SHT31;53428;47.686;16.584;2023-06-10T07:32:08;19.25;90.21
66576;SHT31;53428;47.686;16.584;2023-06-10T07:37:07;19.36;89.50
66576;SHT31;53428;47.686;16.584;2023-06-10T07:42:07;19.31;89.24
66576;SHT31;53428;47.686;16.584;2023-06-10T07:47:07;19.29;88.94
66576;SHT31;53428;47.686;16.584;2023-06-10T07:52:07;19.03;90.83
66576;SHT31;53428;47.686;16.584;2023-06-10T07:57:06;19.28;90.15
66576;SHT31;53428;47.686;16.584;2023-06-10T08:02:06;18.93;91.94
66576;SHT31;53428;47.686;16.584;2023-06-10T08:07:05;19.41;90.84
66576;SHT31;53428;47.686;16.584;2023-06-10T08:12:05;19.11;92.10
66576;SHT31;53428;47.686;16.584;2023-06-10T08:17:05;19.22;90.87
66576;SHT31;53428;47.686;16.584;2023-06-10T08:22:05;19.00;91.80
66576;SHT31;53428;47.686;16.584;2023-06-10T08:27:05;19.60;90.21
66576;SHT31;53428;47.686;16.584;2023-06-10T08:32:05;19.58;90.73
66576;SHT31;53428;47.686;16.584;2023-06-10T08:37:05;19.84;90.04
66576;SHT31;53428;47.686;16.584;2023-06-10T08:42:23;19.55;90.28
66576;SHT31;53428;47.686;16.584;2023-06-10T08:47:24;20.03;89.88
66576;SHT31;53428;47.686;16.584;2023-06-10T08:52:26;19.67;90.07
66576;SHT31;53428;47.686;16.584;2023-06-10T08:57:29;19.83;89.82
66576;SHT31;53428;47.686;16.584;2023-06-10T09:02:29;20.04;89.36
66576;SHT31;53428;47.686;16.584;2023-06-10T09:07:30;20.52;87.24
66576;SHT31;53428;47.686;16.584;2023-06-10T09:12:35;20.24;87.86
66576;SHT31;53428;47.686;16.584;2023-06-10T09:17:37;20.11;88.29
66576;SHT31;53428;47.686;16.584;2023-06-10T09:22:37;20.39;86.84
66576;SHT31;53428;47.686;16.584;2023-06-10T09:27:51;20.22;87.36
66576;SHT31;53428;47.686;16.584;2023-06-10T09:32:58;20.55;86.90
66576;SHT31;53428;47.686;16.584;2023-06-10T09:37:59;20.71;85.22
66576;SHT31;53428;47.686;16.584;2023-06-10T09:43:00;20.55;86.84
66576;SHT31;53428;47.686;16.584;2023-06-10T09:48:00;20.87;85.48
66576;SHT31;53428;47.686;16.584;2023-06-10T09:52:59;20.48;86.32
66576;SHT31;53428;47.686;16.584;2023-06-10T09:57:59;21.98;82.12
66576;SHT31;53428;47.686;16.584;2023-06-10T10:02:59;21.27;84.28
66576;SHT31;53428;47.686;16.584;2023-06-10T10:07:58;21.26;85.22
66576;SHT31;53428;47.686;16.584;2023-06-10T10:12:58;20.45;86.73
66576;SHT31;53428;47.686;16.584;2023-06-10T10:18:07;20.86;84.84
66576;SHT31;53428;47.686;16.584;2023-06-10T10:23:08;21.16;83.80
66576;SHT31;53428;47.686;16.584;2023-06-10T10:28:10;21.57;83.07
66576;SHT31;53428;47.686;16.584;2023-06-10T10:33:13;20.90;84.25
66576;SHT31;53428;47.686;16.584;2023-06-10T10:38:15;21.54;83.13
66576;SHT31;53428;47.686;16.584;2023-06-10T10:43:15;21.86;82.38
66576;SHT31;53428;47.686;16.584;2023-06-10T10:48:16;21.48;83.04
66576;SHT31;53428;47.686;16.584;2023-06-10T10:53:19;21.47;82.74
66576;SHT31;53428;47.686;16.584;2023-06-10T10:58:26;22.44;80.05
66576;SHT31;53428;47.686;16.584;2023-06-10T11:03:29;22.68;79.80
66576;SHT31;53428;47.686;16.584;2023-06-10T11:13:32;23.59;77.06
66576;SHT31;53428;47.686;16.584;2023-06-10T11:18:40;22.48;79.61
66576;SHT31;53428;47.686;16.584;2023-06-10T11:23:41;22.69;75.97
66576;SHT31;53428;47.686;16.584;2023-06-10T11:28:42;22.27;78.07
66576;SHT31;53428;47.686;16.584;2023-06-10T11:34:05;22.87;76.33
66576;SHT31;53428;47.686;16.584;2023-06-10T11:39:05;23.94;75.68
66576;SHT31;53428;47.686;16.584;2023-06-10T11:44:12;24.26;73.18
66576;SHT31;53428;47.686;16.584;2023-06-10T11:49:12;26.16;68.87
66576;SHT31;53428;47.686;16.584;2023-06-10T11:54:11;25.71;68.43
66576;SHT31;53428;47.686;16.584;2023-06-10T11:59:10;26.40;64.69
66576;SHT31;53428;47.686;16.584;2023-06-10T12:04:15;27.17;65.44
66576;SHT31;53428;47.686;16.584;2023-06-10T12:09:22;26.68;66.80
66576;SHT31;53428;47.686;16.584;2023-06-10T12:19:55;27.55;64.60
66576;SHT31;53428;47.686;16.584;2023-06-10T12:25:00;26.20;66.57
66576;SHT31;53428;47.686;16.584;2023-06-10T12:30:04;26.41;66.89
66576;SHT31;53428;47.686;16.584;2023-06-10T12:35:05;28.90;61.15
66576;SHT31;53428;47.686;16.584;2023-06-10T12:40:04;27.91;62.26
66576;SHT31;53428;47.686;16.584;2023-06-10T12:45:10;28.06;62.73
66576;SHT31;53428;47.686;16.584;2023-06-10T12:50:11;28.40;60.48
66576;SHT31;53428;47.686;16.584;2023-06-10T12:55:11;28.66;61.28
66576;SHT31;53428;47.686;16.584;2023-06-10T13:00:10;26.95;65.47
66576;SHT31;53428;47.686;16.584;2023-06-10T13:05:12;27.15;65.27
66576;SHT31;53428;47.686;16.584;2023-06-10T13:10:16;27.88;63.33
66576;SHT31;53428;47.686;16.584;2023-06-10T13:15:16;28.70;62.49
66576;SHT31;53428;47.686;16.584;2023-06-10T13:20:15;27.51;63.62
66576;SHT31;53428;47.686;16.584;2023-06-10T13:25:15;27.77;63.01
66576;SHT31;53428;47.686;16.584;2023-06-10T13:30:14;26.38;65.40
66576;SHT31;53428;47.686;16.584;2023-06-10T13:35:14;24.70;69.19
66576;SHT31;53428;47.686;16.584;2023-06-10T13:40:13;25.92;66.49
66576;SHT31;53428;47.686;16.584;2023-06-10T13:45:12;28.32;61.36
66576;SHT31;53428;47.686;16.584;2023-06-10T13:50:12;28.66;59.73
66576;SHT31;53428;47.686;16.584;2023-06-10T13:55:12;27.15;63.81
66576;SHT31;53428;47.686;16.584;2023-06-10T14:00:11;25.25;67.55
66576;SHT31;53428;47.686;16.584;2023-06-10T14:05:11;24.49;70.23
66576;SHT31;53428;47.686;16.584;2023-06-10T14:10:10;23.85;73.78
66576;SHT31;53428;47.686;16.584;2023-06-10T14:15:10;23.70;75.79
66576;SHT31;53428;47.686;16.584;2023-06-10T14:20:10;23.88;75.92
66576;SHT31;53428;47.686;16.584;2023-06-10T14:25:09;25.08;73.01
66576;SHT31;53428;47.686;16.584;2023-06-10T14:30:13;25.58;70.14
66576;SHT31;53428;47.686;16.584;2023-06-10T14:35:13;25.33;69.87
66576;SHT31;53428;47.686;16.584;2023-06-10T14:40:12;27.02;66.02
66576;SHT31;53428;47.686;16.584;2023-06-10T14:45:12;26.99;65.09
66576;SHT31;53428;47.686;16.584;2023-06-10T14:50:11;25.68;67.86
66576;SHT31;53428;47.686;16.584;2023-06-10T14:55:10;25.25;69.13
66576;SHT31;53428;47.686;16.584;2023-06-10T15:00:10;23.93;74.08
66576;SHT31;53428;47.686;16.584;2023-06-10T15:05:10;24.07;75.00
66576;SHT31;53428;47.686;16.584;2023-06-10T15:10:10;24.35;75.67
66576;SHT31;53428;47.686;16.584;2023-06-10T15:15:09;23.93;75.87
66576;SHT31;53428;47.686;16.584;2023-06-10T15:20:09;23.57;74.27
66576;SHT31;53428;47.686;16.584;2023-06-10T15:25:09;23.88;74.41
66576;SHT31;53428;47.686;16.584;2023-06-10T15:30:08;24.19;74.23
66576;SHT31;53428;47.686;16.584;2023-06-10T15:35:08;24.02;74.47
66576;SHT31;53428;47.686;16.584;2023-06-10T15:40:08;25.15;72.54
66576;SHT31;53428;47.686;16.584;2023-06-10T15:45:08;23.25;77.27
66576;SHT31;53428;47.686;16.584;2023-06-10T15:50:08;21.93;82.41
66576;SHT31;53428;47.686;16.584;2023-06-10T15:55:08;20.76;86.84
66576;SHT31;53428;47.686;16.584;2023-06-10T16:00:08;20.34;87.73
66576;SHT31;53428;47.686;16.584;2023-06-10T16:05:07;20.41;87.90
66576;SHT31;53428;47.686;16.584;2023-06-10T16:10:07;20.56;87.06
66576;SHT31;53428;47.686;16.584;2023-06-10T16:15:07;20.55;86.35
66576;SHT31;53428;47.686;16.584;2023-06-10T16:20:07;20.52;85.84
66576;SHT31;53428;47.686;16.584;2023-06-10T16:25:07;20.59;85.30
66576;SHT31;53428;47.686;16.584;2023-06-10T16:30:07;20.52;86.39
66576;SHT31;53428;47.686;16.584;2023-06-10T16:35:06;20.61;85.84
66576;SHT31;53428;47.686;16.584;2023-06-10T16:40:06;20.71;85.44
66576;SHT31;53428;47.686;16.584;2023-06-10T16:45:06;20.64;85.72
66576;SHT31;53428;47.686;16.584;2023-06-10T16:50:06;20.68;85.89
66576;SHT31;53428;47.686;16.584;2023-06-10T16:55:06;20.85;86.25
66576;SHT31;53428;47.686;16.584;2023-06-10T17:00:06;21.10;86.60
66576;SHT31;53428;47.686;16.584;2023-06-10T17:05:06;21.19;86.32
66576;SHT31;53428;47.686;16.584;2023-06-10T17:10:06;22.44;83.10
66576;SHT31;53428;47.686;16.584;2023-06-10T17:15:06;22.81;81.58
66576;SHT31;53428;47.686;16.584;2023-06-10T17:20:06;21.75;85.43
66576;SHT31;53428;47.686;16.584;2023-06-10T17:25:06;21.24;87.56
66576;SHT31;53428;47.686;16.584;2023-06-10T17:30:06;21.04;88.83
66576;SHT31;53428;47.686;16.584;2023-06-10T17:35:07;20.65;90.37
66576;SHT31;53428;47.686;16.584;2023-06-10T17:40:07;20.56;91.34
66576;SHT31;53428;47.686;16.584;2023-06-10T17:45:08;20.53;91.75
66576;SHT31;53428;47.686;16.584;2023-06-10T17:50:08;20.44;92.54
66576;SHT31;53428;47.686;16.584;2023-06-10T17:55:08;20.25;92.53
66576;SHT31;53428;47.686;16.584;2023-06-10T18:00:08;20.27;92.28
66576;SHT31;53428;47.686;16.584;2023-06-10T18:05:08;20.06;91.43
66576;SHT31;53428;47.686;16.584;2023-06-10T18:10:08;19.89;91.82
66576;SHT31;53428;47.686;16.584;2023-06-10T18:15:08;19.70;92.13
66576;SHT31;53428;47.686;16.584;2023-06-10T18:20:08;19.62;92.35
66576;SHT31;53428;47.686;16.584;2023-06-10T18:25:07;19.51;93.26
66576;SHT31;53428;47.686;16.584;2023-06-10T18:30:07;19.49;92.99
66576;SHT31;53428;47.686;16.584;2023-06-10T18:35:07;18.88;96.84
66576;SHT31;53428;47.686;16.584;2023-06-10T18:40:07;18.37;99.99
66576;SHT31;53428;47.686;16.584;2023-06-10T18:45:06;18.04;99.99
66576;SHT31;53428;47.686;16.584;2023-06-10T18:50:07;17.91;99.99
66576;SHT31;53428;47.686;16.584;2023-06-10T18:55:07;17.84;99.99
66576;SHT31;53428;47.686;16.584;2023-06-10T19:00:08;17.84;99.99
66576;SHT31;53428;47.686;16.584;2023-06-10T19:05:08;17.87;99.99
66576;SHT31;53428;47.686;16.584;2023-06-10T19:10:11;17.84;99.99
66576;SHT31;53428;47.686;16.584;2023-06-10T19:15:11;17.82;99.99
66576;SHT31;53428;47.686;16.584;2023-06-10T19:20:11;17.80;99.99
66576;SHT31;53428;47.686;16.584;2023-06-10T19:25:12;17.71;99.99
66576;SHT31;53428;47.686;16.584;2023-06-10T19:30:12;17.71;99.99
66576;SHT31;53428;47.686;16.584;2023-06-10T19:35:11;17.77;99.99
66576;SHT31;53428;47.686;16.584;2023-06-10T19:40:11;17.71;99.99
66576;SHT31;53428;47.686;16.584;2023-06-10T19:45:11;17.69;99.99
66576;SHT31;53428;47.686;16.584;2023-06-10T19:50:10;17.74;99.99
66576;SHT31;53428;47.686;16.584;2023-06-10T19:55:09;17.69;99.99
66576;SHT31;53428;47.686;16.584;2023-06-10T20:00:09;17.74;99.99
66576;SHT31;53428;47.686;16.584;2023-06-10T20:05:09;17.73;99.99
66576;SHT31;53428;47.686;16.584;2023-06-10T20:10:08;17.70;99.99
66576;SHT31;53428;47.686;16.584;2023-06-10T20:15:08;17.69;99.99
66576;SHT31;53428;47.686;16.584;2023-06-10T20:20:08;17.73;99.99
66576;SHT31;53428;47.686;16.584;2023-06-10T20:25:09;17.73;99.99
66576;SHT31;53428;47.686;16.584;2023-06-10T20:30:12;17.67;99.99
66576;SHT31;53428;47.686;16.584;2023-06-10T20:35:11;17.54;99.99
66576;SHT31;53428;47.686;16.584;2023-06-10T20:40:12;17.51;99.99
66576;SHT31;53428;47.686;16.584;2023-06-10T20:45:12;17.46;99.99
66576;SHT31;53428;47.686;16.584;2023-06-10T20:50:12;17.39;99.99
66576;SHT31;53428;47.686;16.584;2023-06-10T20:55:11;17.41;99.99
66576;SHT31;53428;47.686;16.584;2023-06-10T21:00:11;17.33;99.99
66576;SHT31;53428;47.686;16.584;2023-06-10T21:05:10;17.37;99.99
66576;SHT31;53428;47.686;16.584;2023-06-10T21:10:10;17.41;99.99
66576;SHT31;53428;47.686;16.584;2023-06-10T21:15:10;17.41;99.99
66576;SHT31;53428;47.686;16.584;2023-06-10T21:20:11;17.33;99.99
66576;SHT31;53428;47.686;16.584;2023-06-10T21:25:11;17.32;99.99
66576;SHT31;53428;47.686;16.584;2023-06-10T21:30:10;17.32;99.99
66576;SHT31;53428;47.686;16.584;2023-06-10T21:35:10;17.23;99.99
66576;SHT31;53428;47.686;16.584;2023-06-10T21:40:10;17.22;99.99
66576;SHT31;53428;47.686;16.584;2023-06-10T21:45:09;17.13;99.99
66576;SHT31;53428;47.686;16.584;2023-06-10T21:50:09;17.16;99.99
66576;SHT31;53428;47.686;16.584;2023-06-10T21:55:09;17.24;99.99
66576;SHT31;53428;47.686;16.584;2023-06-10T22:00:09;17.15;99.99
66576;SHT31;53428;47.686;16.584;2023-06-10T22:05:11;17.12;99.99
66576;SHT31;53428;47.686;16.584;2023-06-10T22:10:10;17.26;99.99
66576;SHT31;53428;47.686;16.584;2023-06-10T22:15:11;17.37;99.99
66576;SHT31;53428;47.686;16.584;2023-06-10T22:20:11;17.32;99.99
66576;SHT31;53428;47.686;16.584;2023-06-10T22:25:11;17.33;99.99
66576;SHT31;53428;47.686;16.584;2023-06-10T22:30:11;17.24;99.99
66576;SHT31;53428;47.686;16.584;2023-06-10T22:35:10;17.29;99.99
66576;SHT31;53428;47.686;16.584;2023-06-10T22:40:10;17.24;99.99
66576;SHT31;53428;47.686;16.584;2023-06-10T22:45:09;17.32;99.99
66576;SHT31;53428;47.686;16.584;2023-06-10T22:50:09;17.30;99.99
66576;SHT31;53428;47.686;16.584;2023-06-10T22:55:09;17.29;99.99
66576;SHT31;53428;47.686;16.584;2023-06-10T23:00:09;17.29;99.99
66576;SHT31;53428;47.686;16.584;2023-06-10T23:05:09;17.30;99.99
66576;SHT31;53428;47.686;16.584;2023-06-10T23:10:09;17.32;99.99
66576;SHT31;53428;47.686;16.584;2023-06-10T23:15:09;17.36;99.99
66576;SHT31;53428;47.686;16.584;2023-06-10T23:20:09;17.37;99.99
66576;SHT31;53428;47.686;16.584;2023-06-10T23:25:09;17.40;99.99
66576;SHT31;53428;47.686;16.584;2023-06-10T23:30:09;17.46;99.99
66576;SHT31;53428;47.686;16.584;2023-06-10T23:35:09;17.41;99.99
66576;SHT31;53428;47.686;16.584;2023-06-10T23:40:10;17.40;99.99
66576;SHT31;53428;47.686;16.584;2023-06-10T23:45:10;17.41;99.99
66576;SHT31;53428;47.686;16.584;2023-06-10T23:50:09;17.40;99.99
66576;SHT31;53428;47.686;16.584;2023-06-10T23:55:09;17.37;99.99
